Time;durP1;ratioP1;P1;durP2;ratioP2;P2;SDS_P1;SDS_P2;PMS_P1;PMS_P2;Temp;Humidity;BMP_temperature;BMP_pressure;BME280_temperature;BME280_humidity;BME280_pressure;Samples;Min_cycle;Max_cycle;Signal;HPM_P1;HPM_P2
2023/09/04 00:01:44;;;;;;;5.03;4.53;;;15.30;99.90;;;15.86;100.00;98975.97;10308015;28;20231;-78
2023/09/04 00:06:49;;;;;;;4.65;4.25;;;15.10;99.90;;;15.84;100.00;98960.38;10322594;28;20247;-79
2023/09/04 00:11:52;;;;;;;5.07;4.50;;;15.10;99.90;;;15.87;100.00;98964.81;10322365;28;20256;-79
2023/09/04 00:16:55;;;;;;;4.97;4.60;;;15.10;99.90;;;15.89;100.00;98960.66;10329190;28;20225;-79
2023/09/04 00:21:59;;;;;;;4.65;4.20;;;15.10;99.90;;;15.85;100.00;98958.69;10321205;28;20286;-79
2023/09/04 00:27:03;;;;;;;4.88;4.47;;;15.10;99.90;;;15.85;100.00;98953.53;10306163;28;20231;-79
2023/09/04 00:32:07;;;;;;;5.60;5.10;;;15.00;99.90;;;15.88;100.00;98953.69;10307216;28;20829;-80
2023/09/04 00:37:11;;;;;;;4.65;4.30;;;15.10;99.90;;;15.74;100.00;98952.97;10308017;28;20581;-79
2023/09/04 00:42:15;;;;;;;5.50;4.97;;;15.00;99.90;;;15.69;100.00;98938.94;10308835;28;20234;-81
2023/09/04 00:47:21;;;;;;;5.13;4.72;;;14.90;99.90;;;15.69;100.00;98932.09;10305321;28;20239;-80
2023/09/04 00:52:27;;;;;;;5.85;5.07;;;14.90;99.90;;;15.65;100.00;98917.25;10306772;28;20230;-79
2023/09/04 00:57:30;;;;;;;5.45;5.00;;;14.90;99.90;;;15.52;100.00;98913.09;10307979;28;20323;-79
2023/09/04 01:02:34;;;;;;;5.72;5.30;;;14.80;99.90;;;15.32;100.00;98909.44;10303954;28;20230;-79
2023/09/04 01:07:40;;;;;;;5.97;5.38;;;14.70;99.90;;;15.40;100.00;98911.56;10304817;28;20453;-80
2023/09/04 01:12:51;;;;;;;5.80;5.30;;;14.60;99.90;;;15.28;100.00;98902.34;10308535;28;20274;-79
2023/09/04 01:17:54;;;;;;;7.07;6.43;;;14.60;99.90;;;15.15;100.00;98910.19;10312390;28;20319;-80
2023/09/04 01:23:00;;;;;;;7.00;6.30;;;14.50;99.90;;;15.19;100.00;98909.53;10309689;28;20219;-78
2023/09/04 01:28:11;;;;;;;6.15;5.53;;;14.50;99.90;;;15.29;100.00;98914.41;10299764;28;20223;-78
2023/09/04 01:33:21;;;;;;;7.22;6.15;;;14.60;99.90;;;15.33;100.00;98916.34;10303584;28;20258;-80
2023/09/04 01:38:25;;;;;;;6.68;6.07;;;14.60;99.90;;;15.35;100.00;98910.41;10307274;28;20230;-79
2023/09/04 01:43:29;;;;;;;8.20;5.70;;;14.60;99.90;;;15.35;100.00;98923.28;10303438;28;20260;-80
2023/09/04 01:48:32;;;;;;;6.03;5.50;;;14.60;99.90;;;15.22;100.00;98917.47;10302050;28;20318;-79
2023/09/04 01:53:37;;;;;;;6.20;5.70;;;14.50;99.90;;;15.19;100.00;98917.28;10300887;28;20223;-77
2023/09/04 01:58:40;;;;;;;6.28;5.78;;;14.50;99.90;;;15.19;100.00;98922.41;10302434;28;20317;-79
2023/09/04 02:03:45;;;;;;;6.15;5.68;;;14.40;99.90;;;15.19;100.00;98912.13;10315349;28;20254;-79
2023/09/04 02:08:50;;;;;;;7.30;6.60;;;14.40;99.90;;;15.10;100.00;98916.75;10327018;28;20231;-80
2023/09/04 02:13:53;;;;;;;6.68;6.05;;;14.40;99.90;;;15.16;100.00;98917.09;10320776;28;20324;-78
2023/09/04 02:18:56;;;;;;;7.60;6.90;;;14.40;99.90;;;15.04;100.00;98916.41;10317638;28;20869;-79
2023/09/04 02:24:00;;;;;;;6.97;6.07;;;14.30;99.90;;;15.07;100.00;98911.44;10303972;28;20242;-78
2023/09/04 02:29:04;;;;;;;7.00;6.30;;;14.40;99.90;;;15.10;100.00;98906.47;10309017;28;20227;-79
2023/09/04 02:34:07;;;;;;;6.45;5.85;;;14.30;99.90;;;15.03;100.00;98906.94;10311532;28;20490;-80
2023/09/04 02:39:11;;;;;;;6.65;6.07;;;14.30;99.90;;;15.00;100.00;98905.06;10305711;28;20242;-79
2023/09/04 02:44:14;;;;;;;6.57;5.95;;;14.30;99.90;;;15.00;100.00;98904.19;10309367;28;20250;-80
2023/09/04 02:49:17;;;;;;;6.28;5.78;;;14.20;99.90;;;15.02;100.00;98902.56;10303287;28;20835;-78
2023/09/04 02:54:22;;;;;;;6.55;5.95;;;14.30;99.90;;;14.95;100.00;98897.88;10305775;28;20856;-79
2023/09/04 02:59:26;;;;;;;7.20;6.50;;;14.20;99.90;;;14.97;100.00;98899.75;10306937;28;20266;-79
2023/09/04 03:04:30;;;;;;;6.45;5.95;;;14.20;99.90;;;14.86;100.00;98891.41;10308896;28;20234;-78
2023/09/04 03:09:34;;;;;;;6.82;5.72;;;14.10;99.90;;;14.85;100.00;98897.38;10308658;28;20325;-80
2023/09/04 03:14:37;;;;;;;7.22;6.53;;;14.00;99.90;;;14.78;100.00;98891.78;10304181;28;20313;-79
2023/09/04 03:19:40;;;;;;;6.03;5.53;;;13.90;99.90;;;14.70;100.00;98891.31;10306836;28;20237;-78
2023/09/04 03:24:45;;;;;;;6.53;5.78;;;13.80;99.90;;;14.58;100.00;98908.63;10312822;28;20322;-78
2023/09/04 03:29:48;;;;;;;6.72;6.07;;;13.80;99.90;;;14.47;100.00;98905.41;10307083;28;20623;-80
2023/09/04 03:34:52;;;;;;;6.38;5.88;;;13.70;99.90;;;14.37;100.00;98908.25;10312566;28;20229;-80
2023/09/04 03:40:22;;;;;;;6.72;6.13;;;13.60;99.90;;;14.39;100.00;98915.25;10307779;28;20314;-79
2023/09/04 03:45:25;;;;;;;6.40;5.90;;;13.60;99.90;;;14.41;100.00;98908.50;10307220;28;21446;-78
2023/09/04 03:50:28;;;;;;;6.40;5.80;;;13.60;99.90;;;14.43;100.00;98911.16;10304726;28;20314;-78
2023/09/04 03:55:33;;;;;;;7.15;6.45;;;13.60;99.90;;;14.37;100.00;98915.97;10312148;28;20228;-77
2023/09/04 04:00:36;;;;;;;6.70;6.20;;;13.60;99.90;;;14.34;100.00;98915.78;10308289;28;20736;-78
2023/09/04 04:05:39;;;;;;;6.47;5.88;;;13.60;99.90;;;14.32;100.00;98936.25;10319235;28;20250;-80
2023/09/04 04:10:44;;;;;;;7.38;6.68;;;13.50;99.90;;;14.25;100.00;98922.94;10330178;28;20238;-78
2023/09/04 04:15:47;;;;;;;7.53;6.82;;;13.50;99.90;;;14.17;100.00;98932.78;10323650;28;20229;-78
2023/09/04 04:20:51;;;;;;;6.07;5.57;;;13.40;99.90;;;14.25;100.00;98935.78;10319508;28;20281;-79
2023/09/04 04:25:55;;;;;;;7.70;7.00;;;13.50;99.90;;;14.25;100.00;98946.97;10307925;28;20870;-79
2023/09/04 04:31:02;;;;;;;6.75;6.07;;;13.50;99.90;;;14.28;100.00;98962.59;10303093;28;20231;-78
2023/09/04 04:36:05;;;;;;;6.32;5.82;;;13.50;99.90;;;14.35;100.00;98961.28;10305804;28;20727;-79
2023/09/04 04:41:10;;;;;;;6.57;5.97;;;13.50;99.90;;;14.35;100.00;98956.13;10304196;28;21054;-79
2023/09/04 04:46:15;;;;;;;7.57;6.88;;;13.50;99.90;;;14.41;100.00;98951.34;10303063;28;20237;-80
2023/09/04 04:51:18;;;;;;;7.03;6.43;;;13.60;99.90;;;14.32;100.00;98955.94;10309471;28;20251;-78
2023/09/04 04:56:23;;;;;;;6.72;6.10;;;13.60;99.90;;;14.44;100.00;98946.38;10312503;28;20621;-79
2023/09/04 05:01:26;;;;;;;6.63;5.93;;;13.60;99.90;;;14.48;100.00;98947.44;10320149;28;20365;-79
2023/09/04 05:06:29;;;;;;;7.65;6.45;;;13.60;99.90;;;14.40;100.00;98947.00;10306721;28;20227;-78
2023/09/04 05:11:34;;;;;;;7.00;6.40;;;13.60;99.90;;;14.46;100.00;98949.06;10327725;28;20227;-80
2023/09/04 05:16:38;;;;;;;7.90;7.13;;;13.60;99.90;;;14.49;100.00;98933.81;10326619;28;20235;-81
2023/09/04 05:21:42;;;;;;;8.20;7.35;;;13.70;99.90;;;14.53;100.00;98936.66;10326446;28;20239;-78
2023/09/04 05:26:59;;;;;;;7.22;6.53;;;13.80;99.90;;;14.59;100.00;98929.31;10312607;28;20821;-79
2023/09/04 05:32:02;;;;;;;7.50;6.75;;;13.70;99.90;;;14.58;100.00;98939.50;10315924;28;20322;-80
2023/09/04 05:37:05;;;;;;;7.00;6.30;;;13.80;99.90;;;14.77;100.00;98920.91;10324320;28;20221;-83
2023/09/04 05:42:10;;;;;;;6.95;6.35;;;14.00;99.90;;;15.24;100.00;98926.16;10328141;28;20238;-82
2023/09/04 05:47:13;;;;;;;7.32;6.72;;;14.40;99.90;;;15.96;100.00;98929.22;10325486;28;20236;-85
2023/09/04 05:52:16;;;;;;;6.70;6.10;;;14.90;99.90;;;16.70;98.41;98907.22;10326632;28;20241;-83
2023/09/04 05:57:20;;;;;;;6.22;5.75;;;15.50;99.90;;;17.49;92.98;98924.00;10327209;28;20763;-82
2023/09/04 06:02:24;;;;;;;6.30;5.80;;;16.10;99.90;;;18.14;85.55;98916.63;10317660;28;20723;-86
2023/09/04 06:07:27;;;;;;;6.00;5.47;;;16.80;99.90;;;18.85;81.92;98918.84;10318676;28;20231;-83
2023/09/04 06:12:32;;;;;;;6.38;5.85;;;17.40;99.90;;;19.48;80.80;98920.50;10315585;28;20222;-80
2023/09/04 06:17:35;;;;;;;6.30;5.80;;;18.00;99.90;;;19.80;77.21;98925.25;10311011;28;20230;-80
2023/09/04 06:22:39;;;;;;;6.25;5.65;;;18.10;99.90;;;19.60;76.45;98923.53;10310838;28;20238;-79
2023/09/04 06:27:44;;;;;;;5.90;5.40;;;18.10;99.90;;;19.87;75.12;98925.47;10316414;28;20245;-79
2023/09/04 06:32:48;;;;;;;6.07;5.53;;;18.10;99.90;;;20.07;75.19;98923.63;10312448;28;20218;-80
2023/09/04 06:37:51;;;;;;;5.85;5.45;;;18.60;99.90;;;20.57;75.23;98924.56;10319789;28;20223;-79
2023/09/04 06:42:56;;;;;;;6.53;6.03;;;18.80;99.90;;;20.79;69.02;98923.59;10327680;28;20279;-79
2023/09/04 06:47:59;;;;;;;7.25;5.78;;;19.30;99.90;;;21.17;69.62;98911.84;10323654;28;20239;-79
2023/09/04 06:53:03;;;;;;;5.78;5.30;;;19.40;99.90;;;21.89;68.21;98907.97;10324837;28;20224;-80
2023/09/04 06:58:08;;;;;;;6.00;5.50;;;20.30;99.90;;;22.69;65.60;98913.69;10325636;28;20231;-78
2023/09/04 07:03:11;;;;;;;5.82;5.32;;;21.10;99.90;;;23.38;60.55;98918.91;10330058;28;20239;-82
2023/09/04 07:08:14;;;;;;;5.68;5.10;;;21.60;99.90;;;23.76;60.60;98924.16;10327167;28;20680;-80
2023/09/04 07:13:19;;;;;;;6.30;4.78;;;21.60;99.90;;;24.55;56.17;98915.28;10329254;28;20317;-80
2023/09/04 07:18:23;;;;;;;5.57;5.05;;;22.00;99.90;;;24.53;56.61;98912.66;10328091;28;20246;-80
2023/09/04 07:23:27;;;;;;;4.95;4.55;;;22.10;99.90;;;25.28;54.25;98915.69;10327311;28;20235;-80
2023/09/04 07:28:32;;;;;;;5.10;4.70;;;22.50;99.90;;;25.30;54.14;98908.75;10327687;28;20660;-81
2023/09/04 07:33:36;;;;;;;4.90;4.40;;;23.00;99.90;;;24.71;54.42;98912.97;10335576;28;20277;-81
2023/09/04 07:38:39;;;;;;;5.20;4.80;;;23.10;99.90;;;24.39;55.23;98901.03;10331234;28;20786;-80
2023/09/04 07:43:43;;;;;;;5.10;4.65;;;22.80;99.90;;;24.38;57.15;98901.84;10330202;28;20304;-80
2023/09/04 07:48:47;;;;;;;5.47;4.93;;;23.10;99.90;;;24.92;55.03;98901.09;10330121;28;20593;-79
2023/09/04 07:53:50;;;;;;;5.88;4.78;;;23.60;99.90;;;25.02;55.84;98907.41;10331279;28;20219;-79
2023/09/04 07:58:55;;;;;;;5.40;5.00;;;24.00;99.90;;;25.43;54.55;98904.56;10331387;28;20223;-78
2023/09/04 08:03:58;;;;;;;5.10;4.63;;;24.40;99.90;;;25.87;53.55;98899.97;10328998;28;20233;-79
2023/09/04 08:09:01;;;;;;;4.82;4.40;;;25.00;99.90;;;26.20;52.86;98895.97;10333004;28;20280;-78
2023/09/04 08:14:06;;;;;;;4.32;4.03;;;25.40;99.90;;;26.33;51.20;98905.75;10327900;28;20222;-78
2023/09/04 08:19:09;;;;;;;5.00;4.53;;;25.40;99.90;;;26.74;48.62;98911.44;10332117;28;20253;-79
2023/09/04 08:24:13;;;;;;;4.22;3.92;;;26.20;98.00;;;26.66;49.04;98907.84;10328212;28;20223;-79
2023/09/04 08:29:17;;;;;;;4.53;4.22;;;26.00;98.00;;;26.42;49.60;98902.34;10325283;28;20230;-78
2023/09/04 08:34:20;;;;;;;4.65;4.35;;;25.80;98.10;;;25.92;51.45;98900.88;10322263;28;20253;-79
2023/09/04 08:39:24;;;;;;;4.82;4.38;;;25.40;99.20;;;26.22;48.23;98896.91;10328210;28;20861;-78
2023/09/04 08:44:30;;;;;;;4.28;3.97;;;25.60;96.70;;;25.93;50.22;98902.66;10318820;28;20220;-79
2023/09/04 08:49:33;;;;;;;4.82;4.43;;;25.40;97.90;;;26.38;48.04;98887.44;10319982;28;20234;-79
2023/09/04 08:54:36;;;;;;;4.85;4.38;;;26.00;96.30;;;26.25;47.89;98879.44;10329288;28;20824;-79
2023/09/04 08:59:41;;;;;;;4.18;3.88;;;25.80;96.00;;;26.50;46.05;98883.25;10324891;28;20235;-79
2023/09/04 09:04:44;;;;;;;3.88;3.67;;;26.20;94.20;;;26.59;44.78;98886.81;10319249;28;20374;-81
2023/09/04 09:09:51;;;;;;;4.57;4.28;;;26.20;93.40;;;26.62;43.87;98889.47;10329016;28;20313;-80
2023/09/04 09:15:00;;;;;;;3.85;3.55;;;26.30;92.40;;;26.38;44.45;98888.31;10326822;28;20215;-79
2023/09/04 09:20:03;;;;;;;3.92;3.72;;;26.00;92.90;;;26.79;43.34;98880.00;10325127;28;20261;-78
2023/09/04 09:25:08;;;;;;;4.60;4.20;;;26.50;92.00;;;26.52;42.21;98868.38;10324743;28;20246;-79
2023/09/04 09:30:13;;;;;;;3.92;3.63;;;26.30;90.90;;;26.84;42.95;98878.31;10328141;28;20230;-80
2023/09/04 09:35:16;;;;;;;3.83;3.63;;;26.40;91.50;;;26.33;41.11;98873.44;10328035;28;20714;-79
2023/09/04 09:40:22;;;;;;;4.13;3.83;;;26.10;89.20;;;25.87;43.15;98873.78;10327613;28;20251;-80
2023/09/04 09:45:32;;;;;;;4.00;3.70;;;25.50;91.10;;;25.93;42.15;98872.97;10328716;28;20223;-78
2023/09/04 09:50:37;;;;;;;3.63;3.42;;;25.70;90.30;;;26.02;42.70;98852.97;10328875;28;20231;-78
2023/09/04 09:55:41;;;;;;;3.97;3.67;;;25.70;90.60;;;26.44;41.57;98838.56;10328526;28;20313;-80
2023/09/04 10:00:47;;;;;;;4.05;3.83;;;26.30;89.70;;;26.59;42.09;98843.09;10328739;28;20242;-79
2023/09/04 10:05:50;;;;;;;4.05;3.75;;;26.40;90.10;;;26.36;41.12;98840.25;10323400;28;20222;-79
2023/09/04 10:10:54;;;;;;;4.53;4.13;;;26.10;87.90;;;25.97;42.80;98840.69;10323069;28;20238;-78
2023/09/04 10:16:03;;;;;;;4.18;3.88;;;25.60;90.50;;;26.12;43.15;98835.59;10325671;28;20234;-80
2023/09/04 10:21:10;;;;;;;4.72;4.32;;;25.80;90.90;;;26.24;42.17;98830.50;10324470;28;20257;-79
2023/09/04 10:26:27;;;;;;;6.57;6.07;;;25.90;90.00;;;26.27;41.41;98821.81;10318259;28;20245;-80
2023/09/04 10:31:35;;;;;;;5.00;4.70;;;26.00;88.70;;;26.50;42.25;98822.06;10323219;28;20236;-79
2023/09/04 10:36:39;;;;;;;4.53;4.20;;;26.20;89.80;;;26.58;41.33;98808.97;10320846;28;20223;-79
2023/09/04 10:41:43;;;;;;;4.13;3.83;;;26.30;88.50;;;26.76;39.93;98803.91;10320543;28;20346;-79
2023/09/04 10:46:57;;;;;;;3.88;3.58;;;26.40;86.50;;;27.02;41.41;98801.47;10319389;28;20227;-80
2023/09/04 10:52:00;;;;;;;3.85;3.55;;;26.70;88.50;;;27.32;38.27;98792.03;10328222;28;20230;-79
2023/09/04 10:57:07;;;;;;;3.97;3.67;;;26.90;83.50;;;27.25;38.25;98798.13;10329504;28;20254;-80
2023/09/04 11:07:38;;;;;;;4.00;3.70;;;27.10;83.80;;;27.18;37.86;98789.31;10465224;27;20791;-67
2023/09/04 11:12:45;;;;;;;3.60;3.30;;;26.80;82.90;;;27.36;36.47;98781.56;10391302;28;20705;-68
2023/09/04 11:17:51;;;;;;;3.63;3.33;;;27.00;80.30;;;27.29;35.71;98779.75;10391703;28;20252;-68
2023/09/04 11:22:57;;;;;;;3.88;3.58;;;26.80;78.80;;;27.22;35.13;98783.22;10391521;28;20231;-68
2023/09/04 11:28:01;;;;;;;3.55;3.35;;;26.80;77.80;;;27.10;33.93;98783.09;10392228;28;20230;-67
2023/09/04 11:33:05;;;;;;;3.90;3.60;;;26.70;75.60;;;27.29;34.13;98766.63;10392152;28;20221;-68
2023/09/04 11:38:25;;;;;;;3.38;3.13;;;26.80;75.20;;;26.93;31.84;98767.28;10377290;28;20697;-67
2023/09/04 11:43:29;;;;;;;3.70;3.40;;;26.60;70.70;;;27.13;33.84;98756.91;10391931;28;20304;-68
2023/09/04 11:48:32;;;;;;;3.35;3.05;;;26.70;74.10;;;27.23;33.34;98753.47;10391067;28;20320;-68
2023/09/04 11:53:37;;;;;;;3.60;3.30;;;26.80;73.80;;;27.25;34.46;98740.38;10392417;28;20623;-68
2023/09/04 11:58:40;;;;;;;3.83;3.53;;;26.80;75.10;;;27.25;34.04;98729.88;10384740;28;20218;-67
2023/09/04 12:03:43;;;;;;;3.72;3.42;;;26.80;75.60;;;27.28;32.84;98729.88;10348283;28;20601;-67
2023/09/04 12:08:48;;;;;;;3.58;3.38;;;26.90;72.50;;;27.32;33.09;98716.75;10348649;28;20681;-67
2023/09/04 12:13:51;;;;;;;3.38;2.95;;;26.90;72.50;;;27.42;33.87;98716.81;10349289;28;20249;-67
2023/09/04 12:18:55;;;;;;;2.95;2.75;;;27.00;73.80;;;27.58;33.50;98713.34;10323979;28;20234;-68
2023/09/04 12:24:00;;;;;;;3.17;2.97;;;27.10;73.10;;;27.48;33.16;98706.31;10338892;28;20321;-68
2023/09/04 12:29:03;;;;;;;3.35;3.15;;;27.10;73.10;;;27.73;32.59;98702.88;10364518;28;20245;-67
2023/09/04 12:34:06;;;;;;;3.42;3.20;;;27.30;72.50;;;27.69;32.40;98695.84;10362520;28;20225;-68
2023/09/04 12:39:11;;;;;;;3.60;3.30;;;27.30;71.50;;;27.73;32.50;98692.38;10362444;28;20234;-68
2023/09/04 12:44:14;;;;;;;3.70;3.00;;;27.30;71.70;;;27.80;33.05;98688.03;10364051;28;20612;-68
2023/09/04 12:49:17;;;;;;;4.13;3.72;;;27.30;72.50;;;27.73;34.27;98688.84;10368953;28;20234;-68
2023/09/04 12:54:22;;;;;;;3.85;3.55;;;27.20;74.60;;;27.48;35.29;98680.06;10364849;28;20233;-68
2023/09/04 12:59:25;;;;;;;3.28;3.08;;;27.00;76.70;;;27.66;35.66;98673.94;10364114;28;20253;-67
2023/09/04 13:04:28;;;;;;;3.60;3.30;;;27.10;76.70;;;27.67;35.72;98673.97;10363349;28;20243;-68
2023/09/04 13:09:33;;;;;;;3.78;3.47;;;27.20;76.60;;;27.73;35.51;98666.09;10364508;28;20229;-67
2023/09/04 13:14:37;;;;;;;3.67;3.38;;;27.20;76.90;;;27.93;33.38;98663.50;10362346;28;20233;-68
2023/09/04 13:19:40;;;;;;;3.40;3.20;;;27.30;73.10;;;27.81;35.99;98655.59;10357886;28;20265;-68
2023/09/04 13:24:45;;;;;;;3.63;3.40;;;27.20;77.20;;;27.69;35.58;98642.44;10359889;28;20276;-68
2023/09/04 13:29:48;;;;;;;3.90;3.60;;;27.20;75.80;;;27.67;36.41;98650.31;10357495;28;20673;-68
2023/09/04 13:34:51;;;;;;;3.78;3.55;;;27.00;77.40;;;27.72;34.58;98643.28;10363694;28;20226;-67
2023/09/04 13:39:56;;;;;;;4.03;3.63;;;27.20;74.90;;;27.56;33.96;98625.78;10365884;28;20614;-68
2023/09/04 13:44:59;;;;;;;3.88;3.58;;;27.00;73.40;;;27.69;33.13;98624.91;10358013;28;20233;-68
2023/09/04 13:50:03;;;;;;;3.78;3.47;;;27.20;71.90;;;27.56;33.39;98607.41;10360301;28;20234;-70
2023/09/04 13:55:09;;;;;;;3.75;3.38;;;27.00;72.10;;;27.73;31.17;98613.53;10359358;28;20673;-68
2023/09/04 14:00:15;;;;;;;3.50;3.30;;;27.10;69.30;;;27.78;31.58;98627.53;10358311;28;20252;-68
2023/09/04 14:05:18;;;;;;;3.80;3.50;;;27.20;70.20;;;27.77;32.11;98609.16;10356796;28;20784;-68
2023/09/04 14:10:23;;;;;;;3.83;3.45;;;27.20;70.00;;;27.84;31.43;98611.81;10356130;28;20229;-68
2023/09/04 14:15:26;;;;;;;3.70;3.40;;;27.30;68.70;;;27.94;31.36;98596.06;10364563;28;20272;-68
2023/09/04 14:20:29;;;;;;;3.42;3.10;;;27.40;68.50;;;27.76;31.20;98600.41;10356514;28;20325;-67
2023/09/04 14:25:34;;;;;;;3.53;3.22;;;27.20;68.10;;;27.92;30.05;98592.53;10362281;28;20232;-68
2023/09/04 14:30:37;;;;;;;3.65;3.35;;;27.40;65.80;;;27.82;31.01;98584.66;10361846;28;20226;-68
2023/09/04 14:35:40;;;;;;;4.00;3.70;;;27.20;67.00;;;27.64;30.73;98587.25;10357929;28;20317;-67
2023/09/04 14:40:47;;;;;;;4.05;3.75;;;27.10;66.80;;;27.81;30.17;98592.53;10356315;28;20631;-68
2023/09/04 14:45:50;;;;;;;4.50;4.10;;;27.20;66.20;;;27.65;31.89;98590.78;10358162;28;20340;-68
2023/09/04 14:51:11;;;;;;;4.00;3.67;;;27.00;68.30;;;27.81;31.69;98590.81;10352563;28;20222;-68
2023/09/04 14:56:15;;;;;;;3.85;3.47;;;27.20;69.20;;;27.60;31.96;98577.63;10351158;28;20232;-68
2023/09/04 15:01:20;;;;;;;3.65;3.30;;;27.10;68.90;;;27.89;31.61;98585.53;10358468;28;20284;-68
2023/09/04 15:06:23;;;;;;;3.88;3.58;;;27.30;69.00;;;27.63;32.32;98580.25;10356145;28;20296;-67
2023/09/04 15:11:28;;;;;;;4.05;3.60;;;27.10;69.40;;;27.58;32.43;98576.72;10357001;28;20697;-67
2023/09/04 15:16:31;;;;;;;4.53;3.53;;;27.10;69.60;;;27.64;32.02;98571.47;10354257;28;20226;-67
2023/09/04 15:21:34;;;;;;;5.72;3.60;;;27.10;69.50;;;27.60;31.28;98575.88;10354945;28;20221;-68
2023/09/04 15:26:39;;;;;;;3.78;3.47;;;27.00;68.00;;;27.52;31.95;98580.22;10361129;28;20224;-68
2023/09/04 15:31:42;;;;;;;13.05;11.95;;;26.90;68.60;;;27.81;31.26;98574.13;10355947;28;20693;-68
2023/09/04 15:36:45;;;;;;;3.70;3.35;;;27.30;68.00;;;27.52;32.20;98566.22;10327947;28;20726;-68
2023/09/04 15:41:50;;;;;;;3.75;3.42;;;27.00;69.30;;;27.34;32.35;98573.22;10305398;28;20242;-68
2023/09/04 15:46:53;;;;;;;3.85;3.22;;;26.80;68.80;;;27.36;32.82;98560.09;10313264;28;20234;-67
2023/09/04 15:51:56;;;;;;;3.65;3.30;;;26.70;70.60;;;27.34;33.68;98546.94;10307062;28;20254;-68
2023/09/04 15:57:04;;;;;;;3.88;3.58;;;26.60;71.60;;;27.22;33.84;98546.94;10341274;28;20572;-68
2023/09/04 16:02:07;;;;;;;4.00;3.67;;;26.60;71.40;;;27.13;37.13;98536.41;10357867;28;20230;-68
2023/09/04 16:07:10;;;;;;;4.05;3.65;;;26.50;77.10;;;27.23;38.01;98537.31;10355221;28;20303;-67
2023/09/04 16:12:15;;;;;;;3.80;3.50;;;26.50;78.50;;;26.94;39.85;98536.34;10355976;28;20241;-68
2023/09/04 16:17:19;;;;;;;4.10;3.80;;;26.30;81.20;;;26.78;40.66;98537.16;10336448;28;20614;-67
2023/09/04 16:22:22;;;;;;;5.13;3.65;;;26.10;82.90;;;26.65;41.53;98543.25;10354713;28;20243;-68
2023/09/04 16:27:26;;;;;;;5.32;3.83;;;25.90;84.40;;;26.79;40.83;98535.44;10353666;28;20225;-67
2023/09/04 16:32:30;;;;;;;4.30;3.90;;;26.00;83.40;;;26.61;41.29;98538.84;10354815;28;20226;-68
2023/09/04 16:37:33;;;;;;;4.13;3.78;;;25.90;83.70;;;26.70;40.06;98537.16;10335668;28;20284;-68
2023/09/04 16:42:38;;;;;;;4.28;3.97;;;26.00;82.30;;;26.80;41.01;98538.06;10354727;28;20236;-68
2023/09/04 16:47:41;;;;;;;4.40;4.00;;;26.00;84.30;;;26.47;41.88;98541.41;10343454;28;20740;-68
2023/09/04 16:52:44;;;;;;;4.78;4.38;;;25.70;85.10;;;26.40;42.79;98537.88;10347466;28;20229;-67
2023/09/04 16:57:49;;;;;;;4.15;3.85;;;25.60;86.80;;;26.37;43.34;98532.59;10348093;28;20232;-69
2023/09/04 17:02:52;;;;;;;4.70;4.30;;;25.60;86.90;;;26.23;43.99;98531.66;10349037;28;20229;-68
2023/09/04 17:07:55;;;;;;;4.70;4.22;;;25.40;88.70;;;25.93;44.97;98533.25;10346009;28;20668;-68
2023/09/04 17:13:00;;;;;;;5.15;4.15;;;25.20;89.80;;;25.87;45.68;98540.16;10342851;28;20231;-67
2023/09/04 17:18:03;;;;;;;4.97;4.57;;;25.00;90.40;;;25.84;45.75;98541.03;10346043;28;20595;-69
2023/09/04 17:23:07;;;;;;;5.53;4.75;;;24.90;90.70;;;25.32;46.95;98551.91;10343427;28;20226;-68
2023/09/04 17:28:12;;;;;;;4.93;4.53;;;24.60;91.20;;;25.35;47.18;98551.06;10323782;28;20671;-68
2023/09/04 17:33:15;;;;;;;4.88;4.47;;;24.50;91.80;;;25.22;47.87;98552.69;10352033;28;20232;-68
2023/09/04 17:38:18;;;;;;;4.72;4.32;;;24.30;92.00;;;25.09;48.00;98554.25;10344124;28;20882;-68
2023/09/04 17:43:22;;;;;;;4.97;4.57;;;24.20;92.30;;;24.84;48.37;98558.38;10336674;28;20611;-68
2023/09/04 17:48:27;;;;;;;4.70;4.40;;;23.90;92.90;;;24.76;48.74;98567.00;10346296;28;20317;-68
2023/09/04 17:53:31;;;;;;;4.68;4.30;;;23.80;93.00;;;24.66;48.46;98568.59;10348273;28;20230;-68
2023/09/04 17:58:35;;;;;;;4.70;4.30;;;23.60;93.10;;;24.32;50.06;98562.88;10350004;28;20225;-68
2023/09/04 18:03:39;;;;;;;4.60;4.30;;;23.40;93.70;;;24.10;50.66;98561.72;10345380;28;20225;-68
2023/09/04 18:08:42;;;;;;;5.88;4.85;;;23.20;94.50;;;23.87;51.42;98557.91;10342655;28;20237;-67
2023/09/04 18:13:47;;;;;;;4.43;4.03;;;22.90;95.00;;;23.70;52.41;98558.50;10349100;28;20241;-68
2023/09/04 18:18:50;;;;;;;5.00;4.60;;;22.70;95.90;;;23.60;53.59;98564.38;10344042;28;20230;-67
2023/09/04 18:23:55;;;;;;;5.10;4.70;;;22.60;96.80;;;23.26;55.21;98563.78;10323010;28;20914;-68
2023/09/04 18:29:00;;;;;;;5.35;4.95;;;22.30;98.00;;;23.05;56.12;98563.41;10303898;28;20279;-67
2023/09/04 18:34:04;;;;;;;5.30;4.80;;;22.10;98.60;;;23.05;55.99;98571.25;10307358;28;20231;-68
2023/09/04 18:39:07;;;;;;;5.25;4.85;;;22.00;99.10;;;22.96;57.74;98571.06;10306465;28;20714;-68
2023/09/04 18:44:11;;;;;;;5.47;5.07;;;21.90;99.90;;;22.56;59.62;98572.84;10299849;28;20227;-68
2023/09/04 18:49:14;;;;;;;5.70;5.30;;;21.60;99.90;;;22.23;61.88;98582.56;10303532;28;20235;-68
2023/09/04 18:54:19;;;;;;;5.38;4.97;;;21.30;99.90;;;22.08;62.61;98583.91;10323753;28;20230;-68
2023/09/04 18:59:24;;;;;;;5.55;5.15;;;21.10;99.90;;;21.88;63.49;98581.69;10343520;28;20928;-68
2023/09/04 19:04:29;;;;;;;5.65;5.15;;;21.00;99.90;;;21.69;65.08;98583.00;10352674;28;20222;-68
2023/09/04 19:09:33;;;;;;;6.60;5.85;;;20.70;99.90;;;21.46;66.89;98573.72;10347879;28;20230;-67
2023/09/04 19:14:37;;;;;;;6.32;5.72;;;20.50;99.90;;;21.32;67.39;98566.41;10343609;28;20228;-68
2023/09/04 19:19:41;;;;;;;6.50;5.60;;;20.40;99.90;;;21.24;67.74;98585.25;10344610;28;20878;-68
2023/09/04 19:24:46;;;;;;;5.50;5.10;;;20.30;99.90;;;21.03;68.95;98569.94;10345126;28;21237;-67
2023/09/04 19:29:50;;;;;;;6.38;5.88;;;20.10;99.90;;;20.89;69.80;98567.88;10353710;28;20234;-68
2023/09/04 19:34:53;;;;;;;6.35;5.80;;;20.00;99.90;;;20.81;69.92;98568.50;10349434;28;20238;-67
2023/09/04 19:39:57;;;;;;;6.13;5.63;;;19.90;99.90;;;20.69;70.35;98564.72;10346555;28;20245;-68
2023/09/04 19:45:11;;;;;;;6.47;5.97;;;19.80;99.90;;;20.55;72.13;98559.97;10316500;28;20246;-68
2023/09/04 19:50:14;;;;;;;6.03;5.63;;;19.70;99.90;;;20.49;71.50;98560.63;10309637;28;20243;-68
2023/09/04 19:55:17;;;;;;;6.90;6.30;;;19.60;99.90;;;20.37;72.12;98555.94;10314036;28;20227;-68
2023/09/04 20:00:22;;;;;;;6.53;5.90;;;19.60;99.90;;;20.46;71.60;98558.81;10310510;28;20235;-67
2023/09/04 20:05:26;;;;;;;6.63;6.05;;;19.60;99.90;;;20.33;72.52;98555.81;10310214;28;20227;-67
2023/09/04 20:10:30;;;;;;;7.28;6.68;;;19.50;99.90;;;20.23;72.86;98565.94;10309285;28;20251;-68
2023/09/04 20:15:34;;;;;;;6.78;6.28;;;19.40;99.90;;;20.21;73.21;98557.22;10310391;28;20243;-68
2023/09/04 20:20:38;;;;;;;7.18;6.55;;;19.30;99.90;;;20.06;73.78;98559.34;10314255;28;20231;-67
2023/09/04 20:25:41;;;;;;;6.82;6.20;;;19.20;99.90;;;20.04;74.17;98561.00;10312580;28;20913;-67
2023/09/04 20:30:50;;;;;;;7.13;6.43;;;19.20;99.90;;;19.92;74.02;98558.91;10315155;28;20718;-67
2023/09/04 20:35:54;;;;;;;6.32;5.85;;;19.10;99.90;;;19.88;74.40;98567.41;10309291;28;20307;-69
2023/09/04 20:40:57;;;;;;;7.47;6.88;;;19.00;99.90;;;19.78;75.15;98563.66;10303976;28;20242;-69
2023/09/04 20:46:02;;;;;;;7.07;6.50;;;18.90;99.90;;;19.61;76.64;98558.75;10308102;28;20231;-68
2023/09/04 20:51:05;;;;;;;6.88;6.30;;;18.70;99.90;;;19.32;77.98;98546.56;10340138;28;20233;-68
2023/09/04 20:56:08;;;;;;;6.63;6.13;;;18.40;99.90;;;19.33;77.56;98550.91;10349174;28;20222;-67
2023/09/04 21:01:12;;;;;;;6.50;6.03;;;18.40;99.90;;;19.13;79.38;98557.13;10344209;28;20237;-68
2023/09/04 21:06:16;;;;;;;7.63;6.97;;;18.30;99.90;;;19.00;79.86;98547.16;10348293;28;21519;-67